Terminal Aerodrome Forecast
Issued by NWS

Home | Current Version | Previous Version | Text Only | Print | Product List | Glossary On
Versions: 1 2 3 4 5 6 7 8 9 10 11 12
801
FTUS45 KVEF 160536
TAFDAG
TAF
KDAG 160536Z 1606/1706 26007KT P6SM SCT120 BKN200
     FM161700 29010KT P6SM SCT120 BKN250
     FM162100 01011KT P6SM SCT150 BKN250
     FM170100 35008KT P6SM FEW100 SCT250=

USA.gov is the U.S. government's official web portal to all federal, state and local government web resources and services.